createdAt,value
2016-12-06T00:00:40.564Z,1021.64
2016-12-06T00:01:40.571Z,1021.62
2016-12-06T00:02:40.578Z,1021.64
2016-12-06T00:03:40.585Z,1021.63
2016-12-06T00:04:40.892Z,1021.63
2016-12-06T00:05:40.649Z,1021.63
2016-12-06T00:06:40.605Z,1021.64
2016-12-06T00:07:40.661Z,1021.62
2016-12-06T00:08:40.618Z,1021.63
2016-12-06T00:09:40.624Z,1021.61
2016-12-06T00:10:40.632Z,1021.62
2016-12-06T00:11:40.688Z,1021.65
2016-12-06T00:12:40.646Z,1021.6
2016-12-06T00:13:40.653Z,1021.61
2016-12-06T00:14:40.660Z,1021.61
2016-12-06T00:15:41.367Z,1021.56
2016-12-06T00:16:40.723Z,1021.59
2016-12-06T00:17:40.680Z,1021.57
2016-12-06T00:18:40.688Z,1021.56
2016-12-06T00:19:40.694Z,1021.58
2016-12-06T00:20:40.704Z,1021.62
2016-12-06T00:21:40.707Z,1021.62
2016-12-06T00:22:40.714Z,1021.64
2016-12-06T00:23:40.721Z,1021.63
2016-12-06T00:24:40.728Z,1021.66
2016-12-06T00:25:40.734Z,1021.63
2016-12-06T00:26:41.290Z,1021.63
2016-12-06T00:27:40.747Z,1021.65
2016-12-06T00:28:40.754Z,1021.64
2016-12-06T00:29:40.763Z,1021.67
2016-12-06T00:30:40.771Z,1021.64
2016-12-06T00:31:40.775Z,1021.65
2016-12-06T00:32:40.784Z,1021.66
2016-12-06T00:33:40.840Z,1021.67
2016-12-06T00:34:40.797Z,1021.62
2016-12-06T00:35:40.803Z,1021.65
2016-12-06T00:36:40.810Z,1021.62
2016-12-06T00:37:41.968Z,1021.59
2016-12-06T00:38:40.873Z,1021.57
2016-12-06T00:39:40.832Z,1021.59
2016-12-06T00:40:40.887Z,1021.6
2016-12-06T00:41:40.894Z,1021.59
2016-12-06T00:42:40.849Z,1021.62
2016-12-06T00:43:40.908Z,1021.61
2016-12-06T00:44:40.870Z,1021.61
2016-12-06T00:45:40.871Z,1021.65
2016-12-06T00:46:40.878Z,1021.64
2016-12-06T00:47:40.885Z,1021.65
2016-12-06T00:48:40.899Z,1021.67
2016-12-06T00:49:40.898Z,1021.65
2016-12-06T00:50:40.905Z,1021.65
2016-12-06T00:51:40.911Z,1021.63
2016-12-06T00:52:40.919Z,1021.65
2016-12-06T00:53:40.925Z,1021.64
2016-12-06T00:54:40.932Z,1021.63
2016-12-06T00:55:40.992Z,1021.7
2016-12-06T00:56:40.948Z,1021.66
2016-12-06T00:57:40.955Z,1021.66
2016-12-06T00:58:40.961Z,1021.67
2016-12-06T00:59:40.967Z,1021.67
2016-12-06T01:00:40.973Z,1021.7
2016-12-06T01:01:40.981Z,1021.68
2016-12-06T01:02:40.987Z,1021.72
2016-12-06T01:03:40.996Z,1021.73
2016-12-06T01:04:41.002Z,1021.76
2016-12-06T01:05:41.008Z,1021.75
2016-12-06T01:06:41.016Z,1021.79
2016-12-06T01:07:41.020Z,1021.79
2016-12-06T01:08:41.029Z,1021.77
2016-12-06T01:09:41.035Z,1021.81
2016-12-06T01:10:41.043Z,1021.82
2016-12-06T01:11:41.073Z,1021.8
2016-12-06T01:12:41.055Z,1021.78
2016-12-06T01:13:41.062Z,1021.8
2016-12-06T01:14:41.070Z,1021.79
2016-12-06T01:15:41.076Z,1021.79
2016-12-06T01:16:41.083Z,1021.83
2016-12-06T01:17:41.090Z,1021.83
2016-12-06T01:18:41.097Z,1021.86
2016-12-06T01:19:41.103Z,1021.83
2016-12-06T01:20:41.110Z,1021.86
2016-12-06T01:21:41.117Z,1021.87
2016-12-06T01:22:41.123Z,1021.83
2016-12-06T01:23:41.131Z,1021.85
2016-12-06T01:24:41.136Z,1021.85
2016-12-06T01:25:41.144Z,1021.84
2016-12-06T01:26:41.152Z,1021.82
2016-12-06T01:28:41.164Z,1021.88
2016-12-06T01:29:41.170Z,1021.83
2016-12-06T01:30:41.179Z,1021.89
2016-12-06T01:31:41.185Z,1021.9
2016-12-06T01:32:41.191Z,1021.9
2016-12-06T01:33:41.200Z,1021.92
2016-12-06T01:34:41.205Z,1021.92
2016-12-06T01:35:41.213Z,1021.96
2016-12-06T01:36:41.219Z,1021.96
2016-12-06T01:37:41.275Z,1021.96
2016-12-06T01:38:41.232Z,1021.96
2016-12-06T01:39:41.239Z,1021.97
2016-12-06T01:40:41.247Z,1021.97
2016-12-06T01:41:41.252Z,1021.94
2016-12-06T01:42:41.310Z,1021.94
2016-12-06T01:43:41.266Z,1021.96
2016-12-06T01:44:41.272Z,1022
2016-12-06T01:45:41.279Z,1021.95
2016-12-06T01:46:41.284Z,1021.99
2016-12-06T01:47:41.293Z,1021.99
2016-12-06T01:48:41.299Z,1022.03
2016-12-06T01:49:41.307Z,1022.02
2016-12-06T01:50:41.312Z,1022.04
2016-12-06T01:51:41.370Z,1022.02
2016-12-06T01:52:41.328Z,1022.05
2016-12-06T01:53:41.335Z,1022.06
2016-12-06T01:54:41.343Z,1022.08
2016-12-06T01:55:41.350Z,1022.04
2016-12-06T01:56:41.356Z,1022.03
2016-12-06T01:57:41.413Z,1022.06
2016-12-06T01:58:41.369Z,1022.03
2016-12-06T01:59:41.377Z,1022.05
2016-12-06T02:00:41.433Z,1022.07
2016-12-06T02:01:41.389Z,1022.03
2016-12-06T02:02:41.445Z,1022.06
2016-12-06T02:03:41.402Z,1022.08
2016-12-06T02:04:41.410Z,1022.1
2016-12-06T02:05:41.416Z,1022.12
2016-12-06T02:06:41.423Z,1022.11
2016-12-06T02:07:41.433Z,1022.16
2016-12-06T02:08:41.439Z,1022.15
2016-12-06T02:09:41.510Z,1022.16
2016-12-06T02:10:41.451Z,1022.11
2016-12-06T02:11:41.459Z,1022.12
2016-12-06T02:12:41.468Z,1022.11
2016-12-06T02:13:41.558Z,1022.09
2016-12-06T02:14:41.479Z,1022.1
2016-12-06T02:15:41.536Z,1022.08
2016-12-06T02:16:41.894Z,1022.09
2016-12-06T02:17:41.498Z,1022.12
2016-12-06T02:18:41.507Z,1022.09
2016-12-06T02:19:41.520Z,1022.13
2016-12-06T02:20:41.519Z,1022.13
2016-12-06T02:21:41.526Z,1022.16
2016-12-06T02:22:41.533Z,1022.19
2016-12-06T02:23:41.591Z,1022.16
2016-12-06T02:24:41.545Z,1022.17
2016-12-06T02:25:41.553Z,1022.16
2016-12-06T02:26:41.562Z,1022.16
2016-12-06T02:28:41.574Z,1022.19
2016-12-06T02:29:41.583Z,1022.19
2016-12-06T02:30:41.588Z,1022.17
2016-12-06T02:31:41.645Z,1022.2
2016-12-06T02:32:41.604Z,1022.18
2016-12-06T02:33:41.658Z,1022.21
2016-12-06T02:34:41.614Z,1022.2
2016-12-06T02:35:41.621Z,1022.22
2016-12-06T02:36:41.628Z,1022.28
2016-12-06T02:37:41.636Z,1022.25
2016-12-06T02:38:42.643Z,1022.23
2016-12-06T02:39:41.654Z,1022.26
2016-12-06T02:40:41.656Z,1022.25
2016-12-06T02:41:41.664Z,1022.25
2016-12-06T02:42:41.670Z,1022.26
2016-12-06T02:43:41.676Z,1022.22
2016-12-06T02:44:41.684Z,1022.21
2016-12-06T02:45:41.741Z,1022.22
2016-12-06T02:46:41.696Z,1022.25
2016-12-06T02:47:41.703Z,1022.2
2016-12-06T02:48:41.711Z,1022.21
2016-12-06T02:49:41.718Z,1022.17
2016-12-06T02:50:41.726Z,1022.19
2016-12-06T02:52:41.788Z,1022.26
2016-12-06T02:53:41.745Z,1022.19
2016-12-06T02:54:41.752Z,1022.19
2016-12-06T02:55:41.758Z,1022.18
2016-12-06T02:56:41.764Z,1022.15
2016-12-06T02:57:41.773Z,1022.14
2016-12-06T02:58:41.829Z,1022.13
2016-12-06T02:59:41.787Z,1022.11
2016-12-06T03:00:41.793Z,1022.09
2016-12-06T03:01:41.849Z,1022.12
2016-12-06T03:02:41.806Z,1022.05
2016-12-06T03:03:41.864Z,1022.09
2016-12-06T03:04:41.820Z,1022.04
2016-12-06T03:05:41.876Z,1022.05
2016-12-06T03:06:41.834Z,1022.11
2016-12-06T03:07:41.840Z,1022.06
2016-12-06T03:08:41.846Z,1022.04
2016-12-06T03:24:57.641Z,1022.24
2016-12-06T03:25:57.648Z,1022.3
2016-12-06T03:26:58.006Z,1022.3
2016-12-06T03:27:57.712Z,1022.32
2016-12-06T03:28:57.668Z,1022.32
2016-12-06T03:29:57.724Z,1022.34
2016-12-06T03:30:57.682Z,1022.31
2016-12-06T03:31:57.691Z,1022.34
2016-12-06T03:32:57.696Z,1022.32
2016-12-06T03:33:57.704Z,1022.36
2016-12-06T03:34:57.710Z,1022.38
2016-12-06T03:35:57.716Z,1022.36
2016-12-06T03:36:57.723Z,1022.36
2016-12-06T03:37:58.180Z,1022.35
2016-12-06T03:38:57.737Z,1022.33
2016-12-06T03:40:58.200Z,1022.34
2016-12-06T03:41:57.806Z,1022.37
2016-12-06T03:42:57.764Z,1022.36
2016-12-06T03:43:57.771Z,1022.39
2016-12-06T03:44:57.777Z,1022.35
2016-12-06T03:45:57.784Z,1022.37
2016-12-06T03:46:57.791Z,1022.41
2016-12-06T03:47:57.796Z,1022.4
2016-12-06T03:48:58.454Z,1022.47
2016-12-06T03:49:57.812Z,1022.49
2016-12-06T03:50:57.817Z,1022.49
2016-12-06T03:51:57.850Z,1022.52
2016-12-06T03:52:57.832Z,1022.49
2016-12-06T03:53:57.838Z,1022.51
2016-12-06T03:54:57.844Z,1022.47
2016-12-06T03:55:57.853Z,1022.45
2016-12-06T03:56:57.860Z,1022.48
2016-12-06T03:57:57.865Z,1022.47
2016-12-06T03:58:57.871Z,1022.47
2016-12-06T03:59:58.830Z,1022.39
2016-12-06T04:00:57.887Z,1022.39
2016-12-06T04:01:57.946Z,1022.45
2016-12-06T04:02:57.900Z,1022.4
2016-12-06T04:03:57.907Z,1022.4
2016-12-06T04:04:57.916Z,1022.43
2016-12-06T04:05:57.995Z,1022.43
2016-12-06T04:06:57.926Z,1022.45
2016-12-06T04:07:57.934Z,1022.45
2016-12-06T04:08:57.940Z,1022.44
2016-12-06T04:09:57.948Z,1022.43
2016-12-06T04:10:59.055Z,1022.45
2016-12-06T04:11:57.961Z,1022.45
2016-12-06T04:12:58.017Z,1022.49
2016-12-06T04:13:57.973Z,1022.44
2016-12-06T04:14:57.982Z,1022.47
2016-12-06T04:15:58.040Z,1022.5
2016-12-06T04:16:57.995Z,1022.49
2016-12-06T04:17:58.053Z,1022.5
2016-12-06T04:18:58.008Z,1022.48
2016-12-06T04:19:58.013Z,1022.57
2016-12-06T04:20:58.022Z,1022.56
2016-12-06T04:21:58.079Z,1022.57
2016-12-06T04:22:58.066Z,1022.61
2016-12-06T04:23:58.042Z,1022.59
2016-12-06T04:24:58.051Z,1022.61
2016-12-06T04:25:58.056Z,1022.65
2016-12-06T04:26:58.063Z,1022.65
2016-12-06T04:27:58.070Z,1022.62
2016-12-06T04:28:58.078Z,1022.63
2016-12-06T04:29:58.086Z,1022.65
2016-12-06T04:30:58.092Z,1022.61
2016-12-06T04:31:58.098Z,1022.61
2016-12-06T04:32:58.154Z,1022.57
2016-12-06T04:33:58.112Z,1022.55
2016-12-06T04:34:58.119Z,1022.54
2016-12-06T04:35:58.126Z,1022.56
2016-12-06T04:36:58.132Z,1022.54
2016-12-06T04:37:58.139Z,1022.53
2016-12-06T04:38:58.146Z,1022.53
2016-12-06T04:39:58.152Z,1022.51
2016-12-06T04:40:58.160Z,1022.54
2016-12-06T04:41:58.215Z,1022.51
2016-12-06T04:42:58.248Z,1022.5
2016-12-06T04:43:58.180Z,1022.49
2016-12-06T04:44:58.187Z,1022.48
2016-12-06T04:45:58.244Z,1022.46
2016-12-06T04:46:58.250Z,1022.47
2016-12-06T04:47:58.209Z,1022.48
2016-12-06T04:48:58.213Z,1022.49
2016-12-06T04:49:58.218Z,1022.47
2016-12-06T04:50:58.227Z,1022.52
2016-12-06T04:51:58.283Z,1022.49
2016-12-06T04:52:58.390Z,1022.49
2016-12-06T04:53:58.248Z,1022.52
2016-12-06T04:54:58.255Z,1022.48
2016-12-06T04:55:58.262Z,1022.55
2016-12-06T04:56:58.269Z,1022.55
2016-12-06T04:57:58.324Z,1022.56
2016-12-06T04:58:58.333Z,1022.58
2016-12-06T04:59:58.338Z,1022.63
2016-12-06T05:00:58.293Z,1022.64
2016-12-06T05:01:58.316Z,1022.58
2016-12-06T05:02:58.659Z,1022.67
2016-12-06T05:03:58.443Z,1022.65
2016-12-06T05:04:58.321Z,1022.67
2016-12-06T05:05:58.380Z,1022.7
2016-12-06T05:06:58.336Z,1022.74
2016-12-06T05:07:58.392Z,1022.76
2016-12-06T05:08:58.398Z,1022.81
2016-12-06T05:09:58.356Z,1022.76
2016-12-06T05:10:58.413Z,1022.77
2016-12-06T05:11:58.371Z,1022.77
2016-12-06T05:12:58.376Z,1022.78
2016-12-06T05:13:58.386Z,1022.81
2016-12-06T05:14:59.193Z,1022.78
2016-12-06T05:15:58.447Z,1022.79
2016-12-06T05:16:58.404Z,1022.81
2016-12-06T05:17:58.411Z,1022.8
2016-12-06T05:18:58.418Z,1022.75
2016-12-06T05:19:58.423Z,1022.79
2016-12-06T05:20:58.481Z,1022.76
2016-12-06T05:21:58.488Z,1022.76
2016-12-06T05:22:58.445Z,1022.76
2016-12-06T05:23:58.452Z,1022.8
2016-12-06T05:24:58.458Z,1022.78
2016-12-06T05:25:58.465Z,1022.83
2016-12-06T05:26:58.471Z,1022.8
2016-12-06T05:27:58.479Z,1022.83
2016-12-06T05:28:58.485Z,1022.88
2016-12-06T05:29:58.492Z,1022.91
2016-12-06T05:30:58.550Z,1022.95
2016-12-06T05:31:58.506Z,1022.96
2016-12-06T05:32:58.511Z,1022.96
2016-12-06T05:33:58.570Z,1022.97
2016-12-06T05:34:58.526Z,1022.95
2016-12-06T05:35:58.533Z,1022.99
2016-12-06T05:36:58.589Z,1022.99
2016-12-06T05:37:58.598Z,1022.98
2016-12-06T05:38:59.605Z,1022.99
2016-12-06T05:39:58.562Z,1022.99
2016-12-06T05:40:58.618Z,1022.98
2016-12-06T05:41:58.574Z,1022.97
2016-12-06T05:42:58.581Z,1022.96
2016-12-06T05:43:58.587Z,1023
2016-12-06T05:44:58.595Z,1023.04
2016-12-06T05:45:58.602Z,1022.99
2016-12-06T05:46:58.660Z,1023.03
2016-12-06T05:47:58.613Z,1023.07
2016-12-06T05:48:58.622Z,1023.05
2016-12-06T05:49:58.679Z,1023.1
2016-12-06T05:50:58.636Z,1023.1
2016-12-06T05:51:58.642Z,1023.1
2016-12-06T05:52:58.699Z,1023.08
2016-12-06T05:53:58.656Z,1023.09
2016-12-06T05:54:58.712Z,1023.07
2016-12-06T05:55:58.671Z,1023.05
2016-12-06T05:56:58.677Z,1023.02
2016-12-06T05:57:58.683Z,1023.08
2016-12-06T05:58:58.690Z,1023.08
2016-12-06T05:59:58.697Z,1023.08
2016-12-06T06:00:58.704Z,1023.09
2016-12-06T06:01:58.712Z,1023.07
2016-12-06T06:02:59.318Z,1023.09
2016-12-06T06:03:58.725Z,1023.04
2016-12-06T06:04:58.732Z,1023.07
2016-12-06T06:05:58.738Z,1023.05
2016-12-06T06:06:58.744Z,1023.09
2016-12-06T06:07:58.752Z,1023.06
2016-12-06T06:08:58.759Z,1023.16
2016-12-06T06:09:58.765Z,1023.16
2016-12-06T06:10:58.773Z,1023.17
2016-12-06T06:11:58.779Z,1023.2
2016-12-06T06:12:58.785Z,1023.22
2016-12-06T06:13:58.793Z,1023.24
2016-12-06T06:14:58.799Z,1023.22
2016-12-06T06:15:58.806Z,1023.21
2016-12-06T06:16:58.812Z,1023.22
2016-12-06T06:17:58.828Z,1023.2
2016-12-06T06:18:58.827Z,1023.25
2016-12-06T06:19:58.833Z,1023.24
2016-12-06T06:20:58.839Z,1023.3
2016-12-06T06:21:58.846Z,1023.26
2016-12-06T06:22:58.904Z,1023.3
2016-12-06T06:23:58.859Z,1023.31
2016-12-06T06:24:58.866Z,1023.31
2016-12-06T06:25:58.873Z,1023.29
2016-12-06T06:26:58.880Z,1023.29
2016-12-06T06:27:58.888Z,1023.28
2016-12-06T06:28:58.893Z,1023.32
2016-12-06T06:29:58.901Z,1023.29
2016-12-06T06:30:58.907Z,1023.28
2016-12-06T06:31:58.915Z,1023.32
2016-12-06T06:32:58.970Z,1023.35
2016-12-06T06:33:59.429Z,1023.34
2016-12-06T06:34:58.932Z,1023.31
2016-12-06T06:35:58.940Z,1023.35
2016-12-06T06:36:58.949Z,1023.35
2016-12-06T06:37:58.955Z,1023.33
2016-12-06T06:38:58.960Z,1023.28
2016-12-06T06:39:59.018Z,1023.35
2016-12-06T06:40:59.024Z,1023.29
2016-12-06T06:41:59.033Z,1023.26
2016-12-06T06:42:58.988Z,1023.31
2016-12-06T06:43:58.996Z,1023.32
2016-12-06T06:45:00.106Z,1023.29
2016-12-06T06:45:59.009Z,1023.3
2016-12-06T06:46:59.016Z,1023.31
2016-12-06T06:47:59.022Z,1023.29
2016-12-06T06:48:59.031Z,1023.29
2016-12-06T06:49:59.036Z,1023.31
2016-12-06T06:50:59.093Z,1023.34
2016-12-06T06:51:59.098Z,1023.33
2016-12-06T06:52:59.105Z,1023.33
2016-12-06T06:53:59.062Z,1023.34
2016-12-06T06:54:59.070Z,1023.34
2016-12-06T06:56:00.199Z,1023.36
2016-12-06T06:56:59.082Z,1023.41
2016-12-06T06:57:59.089Z,1023.42
2016-12-06T06:58:59.153Z,1023.45
2016-12-06T06:59:59.153Z,1023.44
2016-12-06T07:00:59.110Z,1023.46
2016-12-06T07:01:59.115Z,1023.47
2016-12-06T07:02:59.123Z,1023.51
2016-12-06T07:03:59.132Z,1023.51
2016-12-06T07:04:59.188Z,1023.53
2016-12-06T07:05:59.144Z,1023.5
2016-12-06T07:06:59.201Z,1023.52
2016-12-06T07:07:59.157Z,1023.51
2016-12-06T07:08:59.164Z,1023.49
2016-12-06T07:09:59.172Z,1023.43
2016-12-06T07:10:59.176Z,1023.49
2016-12-06T07:11:59.235Z,1023.46
2016-12-06T07:12:59.190Z,1023.43
2016-12-06T07:13:59.198Z,1023.52
2016-12-06T07:14:59.205Z,1023.45
2016-12-06T07:15:59.713Z,1023.45
2016-12-06T07:16:59.219Z,1023.44
2016-12-06T07:17:59.228Z,1023.43
2016-12-06T07:18:59.233Z,1023.43
2016-12-06T07:19:59.240Z,1023.43
2016-12-06T07:20:59.244Z,1023.46
2016-12-06T07:21:59.256Z,1023.47
2016-12-06T07:22:59.259Z,1023.5
2016-12-06T07:23:59.267Z,1023.47
2016-12-06T07:24:59.273Z,1023.51
2016-12-06T07:25:59.282Z,1023.47
2016-12-06T07:27:00.086Z,1023.56
2016-12-06T07:27:59.294Z,1023.53
2016-12-06T07:28:59.300Z,1023.53
2016-12-06T07:29:59.356Z,1023.59
2016-12-06T07:30:59.313Z,1023.59
2016-12-06T07:31:59.320Z,1023.61
2016-12-06T07:32:59.331Z,1023.63
2016-12-06T07:33:59.334Z,1023.62
2016-12-06T07:34:59.342Z,1023.68
2016-12-06T07:35:59.348Z,1023.68
2016-12-06T07:36:59.355Z,1023.71
2016-12-06T07:38:00.464Z,1023.75
2016-12-06T07:38:59.370Z,1023.78
2016-12-06T07:39:59.378Z,1023.77
2016-12-06T07:40:59.384Z,1023.81
2016-12-06T07:41:59.389Z,1023.82
2016-12-06T07:42:59.398Z,1023.81
2016-12-06T07:43:59.406Z,1023.79
2016-12-06T07:44:59.411Z,1023.8
2016-12-06T07:45:59.418Z,1023.8
2016-12-06T07:46:59.424Z,1023.79
2016-12-06T07:47:59.482Z,1023.74
2016-12-06T07:48:59.439Z,1023.78
2016-12-06T07:49:59.446Z,1023.77
2016-12-06T07:50:59.455Z,1023.82
2016-12-06T07:51:59.459Z,1023.85
2016-12-06T07:52:59.467Z,1023.9
2016-12-06T07:53:59.475Z,1023.93
2016-12-06T07:54:59.486Z,1023.94
2016-12-06T07:55:59.489Z,1023.95
2016-12-06T07:56:59.496Z,1023.98
2016-12-06T07:57:59.505Z,1024
2016-12-06T07:58:59.511Z,1024.04
2016-12-06T07:59:59.519Z,1024.07
2016-12-06T08:00:59.524Z,1024.06
2016-12-06T08:01:59.534Z,1024.05
2016-12-06T08:02:59.539Z,1024.05
2016-12-06T08:03:59.547Z,1024.05
2016-12-06T08:04:59.556Z,1024.03
2016-12-06T08:05:59.566Z,1024.02
2016-12-06T08:06:59.569Z,1024.01
2016-12-06T08:07:59.578Z,1024.02
2016-12-06T08:08:59.986Z,1024.01
2016-12-06T08:09:59.592Z,1024.03
2016-12-06T08:10:59.600Z,1024
2016-12-06T08:11:59.607Z,1024.05
2016-12-06T08:12:59.614Z,1024.04
2016-12-06T08:13:59.622Z,1024.02
2016-12-06T08:14:59.630Z,1024.02
2016-12-06T08:15:59.637Z,1024.07
2016-12-06T08:16:59.646Z,1024.04
2016-12-06T08:17:59.703Z,1024.07
2016-12-06T08:18:59.659Z,1024.11
2016-12-06T08:20:00.069Z,1024.12
2016-12-06T08:20:59.676Z,1024.05
2016-12-06T08:21:59.683Z,1024.09
2016-12-06T08:22:59.692Z,1024.12
2016-12-06T08:23:59.698Z,1024.13
2016-12-06T08:24:59.705Z,1024.13
2016-12-06T08:25:59.714Z,1024.14
2016-12-06T08:26:59.721Z,1024.15
2016-12-06T08:27:59.730Z,1024.16
2016-12-06T08:28:59.787Z,1024.18
2016-12-06T08:29:59.742Z,1024.23
2016-12-06T08:31:00.308Z,1024.27
2016-12-06T08:31:59.759Z,1024.33
2016-12-06T08:32:59.817Z,1024.34
2016-12-06T08:33:59.774Z,1024.38
2016-12-06T08:34:59.783Z,1024.44
2016-12-06T08:35:59.790Z,1024.47
2016-12-06T08:36:59.798Z,1024.46
2016-12-06T08:37:59.805Z,1024.51
2016-12-06T08:38:59.814Z,1024.61
2016-12-06T08:39:59.821Z,1024.58
2016-12-06T08:40:59.831Z,1024.59
2016-12-06T08:42:00.688Z,1024.6
2016-12-06T08:42:59.842Z,1024.6
2016-12-06T08:43:59.852Z,1024.6
2016-12-06T08:44:59.860Z,1024.56
2016-12-06T08:45:59.868Z,1024.58
2016-12-06T08:46:59.875Z,1024.6
2016-12-06T08:47:59.882Z,1024.59
2016-12-06T08:48:59.940Z,1024.62
2016-12-06T08:49:59.948Z,1024.61
2016-12-06T08:50:59.955Z,1024.6
2016-12-06T08:51:59.912Z,1024.6
2016-12-06T08:53:00.923Z,1024.56
2016-12-06T08:53:59.928Z,1024.58
2016-12-06T08:54:59.936Z,1024.6
2016-12-06T08:55:59.943Z,1024.58
2016-12-06T08:57:00.002Z,1024.56
2016-12-06T08:57:59.958Z,1024.49
2016-12-06T08:59:00.017Z,1024.53
2016-12-06T08:59:59.974Z,1024.55
2016-12-06T09:00:59.982Z,1024.56
2016-12-06T09:02:00.039Z,1024.55
2016-12-06T09:03:00.048Z,1024.61
2016-12-06T09:04:00.005Z,1024.63
2016-12-06T09:05:00.062Z,1024.59
2016-12-06T09:06:00.069Z,1024.58
2016-12-06T09:07:00.028Z,1024.58
2016-12-06T09:08:00.035Z,1024.62
2016-12-06T09:09:00.042Z,1024.59
2016-12-06T09:10:00.060Z,1024.58
2016-12-06T09:11:00.057Z,1024.57
2016-12-06T09:12:00.066Z,1024.6
2016-12-06T09:13:00.074Z,1024.58
2016-12-06T09:14:00.083Z,1024.61
2016-12-06T09:15:00.090Z,1024.61
2016-12-06T09:16:00.098Z,1024.59
2016-12-06T09:17:00.105Z,1024.63
2016-12-06T09:18:00.163Z,1024.64
2016-12-06T09:19:00.121Z,1024.65
2016-12-06T09:20:00.134Z,1024.64
2016-12-06T09:21:00.137Z,1024.64
2016-12-06T09:22:00.145Z,1024.66
2016-12-06T09:23:00.152Z,1024.64
2016-12-06T09:24:00.159Z,1024.62
2016-12-06T09:25:00.167Z,1024.57
2016-12-06T09:26:00.475Z,1024.59
2016-12-06T09:27:00.187Z,1024.53
2016-12-06T09:28:00.198Z,1024.53
2016-12-06T09:29:00.199Z,1024.54
2016-12-06T09:30:00.207Z,1024.52
2016-12-06T09:31:00.214Z,1024.54
2016-12-06T09:32:00.222Z,1024.52
2016-12-06T09:33:00.230Z,1024.52
2016-12-06T09:34:00.288Z,1024.52
2016-12-06T09:35:00.245Z,1024.53
2016-12-06T09:36:00.302Z,1024.54
2016-12-06T09:37:00.261Z,1024.51
2016-12-06T09:38:00.268Z,1024.49
2016-12-06T09:39:00.277Z,1024.53
2016-12-06T09:40:00.285Z,1024.5
2016-12-06T09:41:00.293Z,1024.51
2016-12-06T09:42:00.300Z,1024.48
2016-12-06T09:43:00.307Z,1024.49
2016-12-06T09:44:00.387Z,1024.44
2016-12-06T09:45:00.322Z,1024.46
2016-12-06T09:46:00.330Z,1024.48
2016-12-06T09:47:00.339Z,1024.44
2016-12-06T09:48:00.347Z,1024.45
2016-12-06T09:49:00.355Z,1024.46
2016-12-06T09:50:00.412Z,1024.43
2016-12-06T09:51:00.424Z,1024.46
2016-12-06T09:52:00.380Z,1024.45
2016-12-06T09:53:00.388Z,1024.43
2016-12-06T09:54:00.395Z,1024.48
2016-12-06T09:55:00.403Z,1024.51
2016-12-06T09:56:00.411Z,1024.49
2016-12-06T09:57:00.419Z,1024.56
2016-12-06T09:58:00.476Z,1024.54
2016-12-06T09:59:00.436Z,1024.53
2016-12-06T10:00:00.442Z,1024.58
2016-12-06T10:01:00.700Z,1024.58
2016-12-06T10:02:00.456Z,1024.56
2016-12-06T10:03:00.465Z,1024.56
2016-12-06T10:04:00.473Z,1024.53
2016-12-06T10:05:00.484Z,1024.55
2016-12-06T10:06:00.491Z,1024.54
2016-12-06T10:07:00.497Z,1024.59
2016-12-06T10:08:00.507Z,1024.57
2016-12-06T10:09:00.563Z,1024.58
2016-12-06T10:10:00.521Z,1024.57
2016-12-06T10:11:00.829Z,1024.6
2016-12-06T10:12:01.187Z,1024.56
2016-12-06T10:13:00.544Z,1024.56
2016-12-06T10:14:00.553Z,1024.53
2016-12-06T10:15:00.559Z,1024.49
2016-12-06T10:16:00.567Z,1024.44
2016-12-06T10:17:00.575Z,1024.46
2016-12-06T10:18:00.582Z,1024.45
2016-12-06T10:19:00.589Z,1024.48
2016-12-06T10:20:00.598Z,1024.45
2016-12-06T10:21:00.605Z,1024.47
2016-12-06T10:22:00.613Z,1024.5
2016-12-06T10:23:01.570Z,1024.53
2016-12-06T10:24:00.628Z,1024.53
2016-12-06T10:25:00.636Z,1024.55
2016-12-06T10:26:00.643Z,1024.59
2016-12-06T10:27:00.651Z,1024.58
2016-12-06T10:28:00.658Z,1024.6
2016-12-06T10:29:00.664Z,1024.6
2016-12-06T10:30:00.672Z,1024.63
2016-12-06T10:31:00.689Z,1024.62
2016-12-06T10:32:00.688Z,1024.58
2016-12-06T10:33:00.695Z,1024.58
2016-12-06T10:34:00.703Z,1024.57
2016-12-06T10:35:00.760Z,1024.58
2016-12-06T10:36:00.767Z,1024.57
2016-12-06T10:37:00.727Z,1024.58
2016-12-06T10:38:00.783Z,1024.57
2016-12-06T10:39:00.744Z,1024.59
2016-12-06T10:40:00.746Z,1024.57
2016-12-06T10:41:00.756Z,1024.62
2016-12-06T10:42:00.762Z,1024.61
2016-12-06T10:43:01.120Z,1024.59
2016-12-06T10:44:00.776Z,1024.58
2016-12-06T10:45:00.784Z,1024.58
2016-12-06T10:46:00.792Z,1024.55
2016-12-06T10:47:00.799Z,1024.54
2016-12-06T10:48:00.805Z,1024.56
2016-12-06T10:49:00.815Z,1024.55
2016-12-06T10:50:00.828Z,1024.56
2016-12-06T10:51:00.877Z,1024.61
2016-12-06T10:52:00.835Z,1024.6
2016-12-06T10:53:01.194Z,1024.63
2016-12-06T10:54:01.969Z,1024.61
2016-12-06T10:55:00.857Z,1024.61
2016-12-06T10:56:00.864Z,1024.58
2016-12-06T10:57:00.923Z,1024.63
2016-12-06T10:58:00.877Z,1024.63
2016-12-06T10:59:00.886Z,1024.65
2016-12-06T11:00:00.895Z,1024.54
2016-12-06T11:01:00.902Z,1024.55
2016-12-06T11:02:00.958Z,1024.55
2016-12-06T11:03:00.913Z,1024.54
2016-12-06T11:04:00.922Z,1024.52
2016-12-06T11:05:00.930Z,1024.57
2016-12-06T11:06:00.986Z,1024.59
2016-12-06T11:07:00.942Z,1024.58
2016-12-06T11:08:00.951Z,1024.6
2016-12-06T11:09:01.258Z,1024.59
2016-12-06T11:10:00.964Z,1024.6
2016-12-06T11:11:00.973Z,1024.61
2016-12-06T11:12:00.980Z,1024.61
2016-12-06T11:13:00.985Z,1024.65
2016-12-06T11:14:00.994Z,1024.66
2016-12-06T11:15:01.003Z,1024.68
2016-12-06T11:16:01.058Z,1024.7
2016-12-06T11:17:01.016Z,1024.77
2016-12-06T11:18:01.023Z,1024.76
2016-12-06T11:19:01.031Z,1024.76
2016-12-06T11:20:01.037Z,1024.79
2016-12-06T11:21:01.043Z,1024.8
2016-12-06T11:22:01.102Z,1024.78
2016-12-06T11:23:01.060Z,1024.81
2016-12-06T11:24:01.066Z,1024.79
2016-12-06T11:25:01.075Z,1024.78
2016-12-06T11:26:01.081Z,1024.8
2016-12-06T11:27:01.089Z,1024.79
2016-12-06T11:28:01.145Z,1024.77
2016-12-06T11:29:01.103Z,1024.79
2016-12-06T11:30:01.111Z,1024.79
2016-12-06T11:31:01.116Z,1024.76
2016-12-06T11:32:01.225Z,1024.74
2016-12-06T11:33:01.132Z,1024.71
2016-12-06T11:34:01.191Z,1024.68
2016-12-06T11:35:01.197Z,1024.67
2016-12-06T11:36:01.155Z,1024.66
2016-12-06T11:37:01.161Z,1024.65
2016-12-06T11:38:01.169Z,1024.69
2016-12-06T11:39:01.176Z,1024.67
2016-12-06T11:40:01.235Z,1024.66
2016-12-06T11:41:01.241Z,1024.64
2016-12-06T11:42:01.248Z,1024.64
2016-12-06T11:43:01.206Z,1024.63
2016-12-06T11:44:01.213Z,1024.6
2016-12-06T11:45:01.220Z,1024.61
2016-12-06T11:46:01.228Z,1024.6
2016-12-06T11:47:01.235Z,1024.59
2016-12-06T11:48:01.243Z,1024.59
2016-12-06T11:49:01.300Z,1024.56
2016-12-06T11:50:01.257Z,1024.55
2016-12-06T11:51:02.017Z,1024.53
2016-12-06T11:52:01.272Z,1024.51
2016-12-06T11:53:01.330Z,1024.55
2016-12-06T11:54:01.286Z,1024.55
2016-12-06T11:55:01.295Z,1024.57
2016-12-06T11:56:01.302Z,1024.6
2016-12-06T11:57:01.309Z,1024.64
2016-12-06T11:58:01.320Z,1024.64
2016-12-06T11:59:01.325Z,1024.6
2016-12-06T12:00:01.331Z,1024.59
2016-12-06T12:01:01.338Z,1024.58
2016-12-06T12:02:01.347Z,1024.59
2016-12-06T12:03:01.353Z,1024.58
2016-12-06T12:04:01.361Z,1024.59
2016-12-06T12:05:01.368Z,1024.57
2016-12-06T12:06:01.376Z,1024.56
2016-12-06T12:07:01.383Z,1024.52
2016-12-06T12:08:01.389Z,1024.53
2016-12-06T12:09:01.397Z,1024.52
2016-12-06T12:10:01.455Z,1024.53
2016-12-06T12:11:01.516Z,1024.56
2016-12-06T12:12:01.418Z,1024.56
2016-12-06T12:13:01.478Z,1024.54
2016-12-06T12:14:01.485Z,1024.54
2016-12-06T12:15:01.441Z,1024.54
2016-12-06T12:16:01.448Z,1024.5
2016-12-06T12:17:01.462Z,1024.51
2016-12-06T12:18:01.463Z,1024.51
2016-12-06T12:19:01.470Z,1024.46
2016-12-06T12:20:01.477Z,1024.5
2016-12-06T12:21:01.536Z,1024.48
2016-12-06T12:22:02.243Z,1024.45
2016-12-06T12:23:01.500Z,1024.43
2016-12-06T12:24:01.507Z,1024.43
2016-12-06T12:25:01.515Z,1024.43
2016-12-06T12:26:01.572Z,1024.4
2016-12-06T12:27:01.530Z,1024.4
2016-12-06T12:28:01.587Z,1024.44